Time;durP1;ratioP1;P1;durP2;ratioP2;P2;SDS_P1;SDS_P2;PMS_P1;PMS_P2;Temp;Humidity;BMP_temperature;BMP_pressure;BME280_temperature;BME280_humidity;BME280_pressure;Samples;Min_cycle;Max_cycle;Signal;HPM_P1;HPM_P2
2021/09/09 00:00:40;;;;;;;2.15;2.05;;;;;;;14.00;79.40;99831.72;4876785;29;20135;-72
2021/09/09 00:03:07;;;;;;;2.45;2.35;;;;;;;13.96;79.72;99831.09;4876289;29;20135;-73
2021/09/09 00:05:35;;;;;;;2.90;2.80;;;;;;;13.98;79.52;99825.72;4875320;29;20057;-72
2021/09/09 00:08:01;;;;;;;1.50;1.45;;;;;;;13.96;79.48;99825.00;4876457;29;20128;-74
2021/09/09 00:21:08;;;;;;;1.60;1.50;;;;;;;13.97;79.53;99816.19;6303329;22;20196;-73
2021/09/09 00:23:35;;;;;;;2.58;2.45;;;;;;;13.98;79.23;99804.72;6249108;23;20024;-73
2021/09/09 00:26:04;;;;;;;2.15;2.05;;;;;;;13.98;79.48;99805.56;6250520;22;20479;-74
2021/09/09 00:28:31;;;;;;;2.73;2.63;;;;;;;13.97;79.15;99809.13;6257091;22;20051;-74
2021/09/09 00:30:58;;;;;;;1.33;1.33;;;;;;;14.02;78.80;99798.31;6261292;22;20043;-74
2021/09/09 00:33:24;;;;;;;1.88;1.77;;;;;;;14.05;78.53;99803.34;6255637;23;20023;-75
2021/09/09 00:35:51;;;;;;;1.98;1.88;;;;;;;14.01;78.40;99792.22;6251113;23;20023;-74
2021/09/09 00:38:17;;;;;;;1.98;1.92;;;;;;;14.05;78.67;99812.06;6249157;23;20020;-75
2021/09/09 00:40:43;;;;;;;2.33;2.22;;;;;;;14.03;78.84;99805.25;6250806;22;20020;-73
2021/09/09 00:43:09;;;;;;;1.67;1.55;;;;;;;14.08;78.45;99805.75;6248775;23;20020;-74
2021/09/09 00:45:34;;;;;;;1.58;1.52;;;;;;;14.07;78.35;99801.44;6248827;23;20522;-75
2021/09/09 00:48:01;;;;;;;2.60;2.50;;;;;;;14.07;78.29;99796.19;6223237;23;20055;-75
2021/09/09 00:50:27;;;;;;;2.83;2.42;;;;;;;14.06;78.40;99789.28;6250137;22;20371;-75
2021/09/09 00:52:53;;;;;;;2.00;1.90;;;;;;;14.07;78.30;99780.44;6248640;23;20016;-75
2021/09/09 00:55:19;;;;;;;1.88;1.77;;;;;;;14.05;78.45;99791.06;6248493;23;20451;-74
2021/09/09 00:57:45;;;;;;;2.25;2.08;;;;;;;14.04;78.40;99786.75;6223258;23;20363;-74
2021/09/09 01:00:11;;;;;;;7.72;1.77;;;;;;;14.04;78.24;99785.91;6223155;23;20024;-74
2021/09/09 01:02:37;;;;;;;2.50;2.35;;;;;;;14.08;78.15;99792.63;6250124;22;20026;-74
2021/09/09 01:05:04;;;;;;;2.55;2.35;;;;;;;14.10;77.83;99785.50;6223111;23;20016;-74
2021/09/09 01:07:30;;;;;;;5.57;2.45;;;;;;;14.11;77.61;99784.53;6250019;23;20016;-73
2021/09/09 01:09:59;;;;;;;4.50;2.55;;;;;;;14.13;77.64;99784.44;6248453;23;20020;-75
2021/09/09 01:12:26;;;;;;;3.47;2.83;;;;;;;14.12;77.83;99772.25;6249164;22;20027;-75
2021/09/09 01:14:52;;;;;;;2.53;2.40;;;;;;;14.18;77.17;99790.19;6249950;22;20022;-74
2021/09/09 01:17:18;;;;;;;3.00;2.80;;;;;;;14.10;77.53;99775.81;6248053;23;20020;-74
2021/09/09 01:19:44;;;;;;;1.85;1.75;;;;;;;14.08;77.39;99766.38;6248289;23;20034;-73
2021/09/09 01:22:10;;;;;;;2.55;2.35;;;;;;;14.10;76.93;99769.75;6215263;23;20023;-75
2021/09/09 01:24:36;;;;;;;2.55;2.45;;;;;;;14.04;77.40;99770.16;6243108;22;20103;-74
2021/09/09 01:27:17;;;;;;;2.08;1.98;;;;;;;14.03;77.65;99765.88;6243117;23;20020;-74
2021/09/09 01:29:44;;;;;;;2.47;2.28;;;;;;;14.00;77.69;99774.78;6243016;23;20027;-74
2021/09/09 01:32:09;;;;;;;4.63;1.88;;;;;;;13.96;77.93;99769.88;6241206;23;20055;-74
2021/09/09 01:34:36;;;;;;;13.25;2.20;;;;;;;13.92;77.98;99777.13;6241683;23;20107;-74
2021/09/09 01:37:02;;;;;;;3.60;2.20;;;;;;;13.93;78.17;99770.09;6242915;22;20082;-74
2021/09/09 01:39:28;;;;;;;0.85;0.85;;;;;;;13.90;78.09;99767.69;6242616;23;20028;-74
2021/09/09 01:41:54;;;;;;;1.83;1.75;;;;;;;13.91;77.72;99758.84;6215941;23;20367;-75
2021/09/09 01:44:21;;;;;;;2.10;2.00;;;;;;;13.84;78.34;99762.84;6243066;23;20016;-75
2021/09/09 01:46:47;;;;;;;2.15;2.05;;;;;;;13.88;78.15;99764.31;6242842;22;20023;-73
2021/09/09 01:49:14;;;;;;;2.42;2.28;;;;;;;13.82;78.04;99755.06;6242500;23;20024;-75
2021/09/09 01:51:40;;;;;;;1.80;1.77;;;;;;;13.90;78.22;99778.19;6191527;23;20095;-75
2021/09/09 01:54:06;;;;;;;1.88;1.83;;;;;;;13.87;78.31;99763.47;6241218;23;20016;-75
2021/09/09 01:56:32;;;;;;;2.85;2.63;;;;;;;13.89;78.06;99768.63;6242815;22;20027;-74
2021/09/09 01:58:58;;;;;;;1.75;1.65;;;;;;;13.84;78.37;99762.84;6241416;23;20020;-74
2021/09/09 02:01:25;;;;;;;2.42;2.25;;;;;;;13.85;78.08;99764.50;6242403;22;20020;-75
2021/09/09 02:03:51;;;;;;;5.70;2.22;;;;;;;13.89;77.70;99755.50;6242791;22;20099;-75
2021/09/09 02:06:17;;;;;;;2.08;1.98;;;;;;;13.92;77.60;99757.91;6215774;23;20047;-75
2021/09/09 02:08:43;;;;;;;3.55;2.30;;;;;;;13.87;77.77;99750.34;6242485;23;20020;-74
2021/09/09 02:11:09;;;;;;;2.45;2.25;;;;;;;13.90;77.68;99751.94;6242584;22;20451;-74
2021/09/09 02:13:37;;;;;;;2.35;2.20;;;;;;;13.90;77.64;99749.31;6216007;23;20519;-73
2021/09/09 02:16:03;;;;;;;6.43;1.52;;;;;;;13.86;77.74;99745.22;6241125;23;20087;-74
2021/09/09 02:18:29;;;;;;;1.80;1.73;;;;;;;13.90;77.74;99757.19;6240792;23;20020;-74
2021/09/09 02:20:55;;;;;;;0.77;0.77;;;;;;;13.88;77.84;99753.81;6240754;23;20019;-75
2021/09/09 02:23:21;;;;;;;2.72;1.92;;;;;;;13.88;77.57;99752.03;6242208;23;20042;-76
2021/09/09 02:25:47;;;;;;;2.05;1.95;;;;;;;13.91;77.28;99748.34;6242355;22;20057;-74
2021/09/09 02:28:13;;;;;;;2.10;2.00;;;;;;;13.85;77.28;99754.03;6242208;23;20024;-74
2021/09/09 02:30:40;;;;;;;2.45;2.33;;;;;;;13.87;77.71;99758.22;6242290;22;20020;-73
2021/09/09 02:33:06;;;;;;;3.10;2.50;;;;;;;13.84;77.84;99752.38;6240399;22;20024;-74
2021/09/09 02:35:31;;;;;;;1.40;1.40;;;;;;;13.83;77.99;99750.69;6242711;22;20414;-75
2021/09/09 02:37:57;;;;;;;1.77;1.67;;;;;;;13.87;77.95;99757.41;6242235;23;20020;-75
2021/09/09 02:40:23;;;;;;;1.92;1.83;;;;;;;13.82;78.03;99749.00;6240536;23;20020;-76
2021/09/09 02:42:49;;;;;;;1.70;1.60;;;;;;;13.86;77.69;99753.09;6240254;23;20020;-75
2021/09/09 02:45:15;;;;;;;2.15;2.05;;;;;;;13.82;77.99;99749.84;6242153;22;20016;-75
2021/09/09 02:47:41;;;;;;;4.05;2.00;;;;;;;13.84;78.10;99753.19;6240549;23;20392;-75
2021/09/09 02:50:08;;;;;;;1.45;1.38;;;;;;;13.84;77.98;99744.50;6242176;22;20490;-75
2021/09/09 02:52:34;;;;;;;2.45;2.35;;;;;;;13.84;78.08;99747.13;6240540;23;20023;-75
2021/09/09 02:55:00;;;;;;;1.52;1.42;;;;;;;13.90;77.70;99747.53;6242252;22;20008;-74
2021/09/09 02:57:26;;;;;;;1.08;1.08;;;;;;;13.90;77.53;99746.69;6241867;22;20020;-75
2021/09/09 02:59:52;;;;;;;1.23;1.23;;;;;;;13.91;77.74;99751.81;6240641;23;20466;-73
2021/09/09 03:02:18;;;;;;;3.22;1.98;;;;;;;13.92;77.35;99742.16;6241913;23;20038;-75
2021/09/09 03:04:44;;;;;;;2.17;1.67;;;;;;;13.84;77.77;99726.94;6240696;23;20038;-76
2021/09/09 03:07:10;;;;;;;2.15;2.05;;;;;;;13.91;77.53;99743.94;6241996;23;20038;-75
2021/09/09 03:09:37;;;;;;;2.25;1.80;;;;;;;14.00;77.14;99742.47;6240742;23;20024;-74
2021/09/09 03:12:04;;;;;;;2.60;2.45;;;;;;;14.02;77.25;99751.06;6240594;23;20475;-74
2021/09/09 03:14:29;;;;;;;1.42;1.42;;;;;;;13.98;77.08;99733.84;6240634;23;20023;-75
2021/09/09 03:16:56;;;;;;;1.80;1.70;;;;;;;13.99;77.21;99738.16;6241869;23;20039;-76
2021/09/09 03:19:22;;;;;;;1.70;1.67;;;;;;;14.03;77.07;99747.50;6240185;23;20027;-74
2021/09/09 03:21:48;;;;;;;2.03;1.92;;;;;;;14.08;76.67;99745.38;6241809;22;20100;-74
2021/09/09 03:24:15;;;;;;;2.20;2.10;;;;;;;14.06;76.92;99736.78;6241637;22;20105;-76
2021/09/09 03:26:41;;;;;;;3.28;2.88;;;;;;;14.07;77.17;99741.91;6241637;22;20016;-76
2021/09/09 03:29:07;;;;;;;2.25;2.05;;;;;;;14.06;77.12;99752.53;6241748;23;20027;-74
2021/09/09 03:31:33;;;;;;;1.73;1.70;;;;;;;14.08;76.84;99754.09;6215155;23;20020;-74
2021/09/09 03:33:59;;;;;;;2.28;2.17;;;;;;;14.12;77.01;99749.47;6241404;23;20299;-74
2021/09/09 03:36:25;;;;;;;2.08;1.98;;;;;;;14.10;76.82;99751.38;6242280;23;20094;-74
2021/09/09 03:38:52;;;;;;;1.50;1.40;;;;;;;14.15;76.58;99746.63;6225916;23;20020;-75
2021/09/09 03:41:19;;;;;;;2.03;1.92;;;;;;;14.15;77.33;99756.28;6251722;23;20020;-74
2021/09/09 03:43:45;;;;;;;2.28;2.17;;;;;;;14.16;76.86;99764.06;6216813;23;20549;-73
2021/09/09 03:46:11;;;;;;;1.40;1.30;;;;;;;14.13;76.66;99768.69;6242608;23;20474;-76
2021/09/09 03:48:37;;;;;;;1.50;1.40;;;;;;;14.12;76.74;99762.59;6242264;22;20062;-74
2021/09/09 03:51:03;;;;;;;2.00;1.90;;;;;;;14.13;76.77;99761.66;6240445;23;20367;-74
2021/09/09 03:53:28;;;;;;;1.73;1.63;;;;;;;14.16;76.46;99756.19;6214394;23;20025;-72
2021/09/09 03:55:54;;;;;;;1.52;1.45;;;;;;;14.17;76.60;99759.66;6240216;23;20122;-74
2021/09/09 03:58:20;;;;;;;4.22;1.58;;;;;;;14.19;75.88;99753.34;6241446;22;20020;-75
2021/09/09 04:00:46;;;;;;;1.75;1.65;;;;;;;14.20;76.11;99762.88;6239209;22;20016;-75
2021/09/09 04:03:12;;;;;;;6.95;1.75;;;;;;;14.22;76.40;99771.50;6241237;22;20020;-72
2021/09/09 04:05:38;;;;;;;1.55;1.55;;;;;;;14.24;76.30;99772.22;6241473;22;20020;-73
2021/09/09 04:08:04;;;;;;;1.27;1.27;;;;;;;14.25;76.05;99773.91;6236469;23;20364;-73
2021/09/09 04:10:30;;;;;;;9.75;1.98;;;;;;;14.26;76.21;99777.38;6238617;23;20055;-74
2021/09/09 04:12:56;;;;;;;1.50;1.50;;;;;;;14.28;76.23;99775.47;6239655;23;20028;-74
2021/09/09 04:15:22;;;;;;;3.92;1.90;;;;;;;14.28;76.18;99785.97;6240968;23;20020;-75
2021/09/09 04:17:48;;;;;;;3.40;2.08;;;;;;;14.26;76.39;99786.09;6240439;22;20020;-75
2021/09/09 04:20:15;;;;;;;2.40;2.20;;;;;;;14.24;76.34;99782.72;6241102;23;20016;-73
2021/09/09 04:22:40;;;;;;;2.13;1.98;;;;;;;14.21;76.66;99782.94;6240397;23;20043;-74
2021/09/09 04:25:07;;;;;;;1.95;1.85;;;;;;;14.28;76.22;99789.44;6241818;22;20451;-74
2021/09/09 04:27:33;;;;;;;3.30;1.65;;;;;;;14.26;76.24;99778.22;6241383;22;20123;-76
2021/09/09 04:29:59;;;;;;;1.27;1.27;;;;;;;14.33;76.20;99787.34;6213533;23;20044;-75
2021/09/09 04:32:25;;;;;;;1.60;1.35;;;;;;;14.36;75.93;99789.78;6238492;23;20028;-73
2021/09/09 04:34:51;;;;;;;1.70;1.60;;;;;;;14.34;76.26;99777.69;6241253;23;20168;-74
2021/09/09 04:37:23;;;;;;;3.53;2.63;;;;;;;14.35;75.85;99789.88;6239863;23;20095;-74
2021/09/09 04:40:30;;;;;;;1.67;1.65;;;;;;;14.35;75.97;99769.69;6214359;23;20054;-77
2021/09/09 04:43:00;;;;;;;2.53;1.48;;;;;;;14.26;76.27;99780.84;6178208;23;20020;-77
2021/09/09 04:45:26;;;;;;;5.85;3.10;;;;;;;14.37;75.85;99794.06;6238946;23;20110;-74
2021/09/09 04:47:52;;;;;;;1.13;1.13;;;;;;;14.37;76.20;99782.72;6239126;23;20016;-72
2021/09/09 04:50:18;;;;;;;1.73;1.63;;;;;;;14.29;75.85;99779.78;6239174;23;20027;-73
2021/09/09 04:52:45;;;;;;;4.72;2.40;;;;;;;14.31;76.11;99786.59;6165019;23;20020;-73
2021/09/09 04:55:12;;;;;;;2.60;2.42;;;;;;;14.34;76.24;99788.19;6140345;23;20020;-73
2021/09/09 04:57:39;;;;;;;2.15;2.03;;;;;;;14.37;76.13;99794.06;6166533;23;20022;-75
2021/09/09 05:00:07;;;;;;;2.15;2.05;;;;;;;14.37;76.30;99794.06;6167115;23;20026;-73
2021/09/09 05:02:33;;;;;;;2.60;2.42;;;;;;;14.40;76.33;99787.75;6242740;22;20027;-74
2021/09/09 05:04:59;;;;;;;2.35;2.25;;;;;;;14.38;76.41;99789.66;6241583;23;20016;-74
2021/09/09 05:07:26;;;;;;;1.92;1.83;;;;;;;14.39;76.42;99776.41;6241797;23;20012;-75
2021/09/09 05:09:53;;;;;;;1.63;1.55;;;;;;;14.35;76.42;99780.22;6241666;23;20027;-74
2021/09/09 05:12:19;;;;;;;1.98;1.88;;;;;;;14.34;76.42;99773.28;6216321;23;20020;-76
2021/09/09 05:14:45;;;;;;;9.48;2.65;;;;;;;14.40;76.22;99762.31;6241507;23;20475;-73
2021/09/09 05:17:11;;;;;;;1.58;1.58;;;;;;;14.42;76.25;99781.44;6243301;22;20070;-75
2021/09/09 05:19:37;;;;;;;2.10;1.85;;;;;;;14.41;76.62;99778.91;6243117;22;20096;-74
2021/09/09 05:22:06;;;;;;;1.45;1.33;;;;;;;14.25;76.36;99757.31;6167484;23;20020;-74
2021/09/09 05:24:32;;;;;;;1.83;1.73;;;;;;;14.28;76.41;99757.06;6190810;23;20370;-74
2021/09/09 05:26:58;;;;;;;1.52;1.52;;;;;;;14.34;76.49;99773.28;6141788;23;20043;-74
2021/09/09 05:29:26;;;;;;;2.20;2.00;;;;;;;14.44;76.45;99789.19;6190761;23;20051;-74
2021/09/09 05:31:53;;;;;;;1.55;1.55;;;;;;;14.41;76.66;99774.50;6191878;23;20020;-75
2021/09/09 05:34:19;;;;;;;1.70;1.60;;;;;;;14.39;76.52;99781.69;6241388;23;20020;-74
2021/09/09 05:36:45;;;;;;;1.80;1.63;;;;;;;14.43;76.90;99787.56;6241620;23;20066;-75
2021/09/09 05:43:21;;;;;;;1.60;1.60;;;;;;;14.45;76.36;99789.13;6237579;22;20024;-75
2021/09/09 05:45:47;;;;;;;3.38;3.15;;;;;;;14.41;76.81;99784.16;6240285;23;20459;-76
2021/09/09 05:48:13;;;;;;;4.65;2.55;;;;;;;14.46;76.54;99775.00;6241795;23;20101;-77
2021/09/09 05:50:39;;;;;;;0.70;0.70;;;;;;;14.57;76.22;99798.72;6240481;23;20439;-78
2021/09/09 05:53:52;;;;;;;1.48;1.38;;;;;;;14.63;76.20;99802.69;6215393;23;20351;-79
2021/09/09 05:56:37;;;;;;;1.92;1.83;;;;;;;14.64;76.04;99796.50;6217560;23;20026;-76
2021/09/09 05:59:03;;;;;;;5.30;3.33;;;;;;;14.58;76.04;99786.44;6237770;23;20074;-76
2021/09/09 06:01:29;;;;;;;1.55;1.45;;;;;;;14.63;76.36;99797.44;6214179;23;20020;-75
2021/09/09 06:03:56;;;;;;;1.38;1.38;;;;;;;14.68;76.28;99792.69;6213146;23;20020;-76
2021/09/09 06:06:23;;;;;;;1.40;1.40;;;;;;;14.75;75.80;99786.06;6237114;23;20074;-76
2021/09/09 06:08:49;;;;;;;1.60;1.60;;;;;;;14.76;75.94;99789.50;6213408;23;20459;-75
2021/09/09 06:11:15;;;;;;;1.88;1.77;;;;;;;14.91;74.90;99793.66;6237338;23;20455;-75
2021/09/09 06:13:42;;;;;;;1.88;1.55;;;;;;;14.90;75.06;99790.19;6240478;23;20359;-75
2021/09/09 06:16:08;;;;;;;1.63;1.60;;;;;;;14.89;75.19;99800.78;6209805;23;20023;-76
2021/09/09 06:18:34;;;;;;;4.75;2.47;;;;;;;14.89;75.64;99790.28;6238257;23;20020;-76
2021/09/09 06:21:02;;;;;;;1.73;1.63;;;;;;;15.01;75.47;99798.13;6213228;23;20027;-76
2021/09/09 06:23:28;;;;;;;3.10;2.33;;;;;;;15.09;74.65;99787.84;6214154;23;20046;-76
2021/09/09 06:25:55;;;;;;;2.03;1.55;;;;;;;15.18;74.71;99783.72;6213806;23;20474;-76
2021/09/09 06:28:22;;;;;;;2.20;2.10;;;;;;;15.26;74.26;99786.59;6214051;23;20127;-75
2021/09/09 06:30:48;;;;;;;4.50;1.73;;;;;;;15.33;73.91;99793.09;6217520;23;20639;-77
2021/09/09 06:33:14;;;;;;;2.80;2.67;;;;;;;15.33;74.58;99787.81;6246846;23;20103;-75
2021/09/09 06:35:40;;;;;;;1.90;1.83;;;;;;;15.37;74.77;99784.00;6241185;22;20074;-76
2021/09/09 06:38:06;;;;;;;2.20;2.05;;;;;;;15.25;74.57;99781.47;6239718;23;20662;-76
2021/09/09 06:40:32;;;;;;;2.10;2.00;;;;;;;15.31;75.10;99789.75;6241624;22;20096;-76
2021/09/09 06:42:58;;;;;;;8.35;2.95;;;;;;;15.33;75.02;99781.72;6237341;23;20020;-76
2021/09/09 06:45:24;;;;;;;2.75;2.55;;;;;;;15.35;75.12;99772.75;6240482;23;20016;-76
2021/09/09 06:47:50;;;;;;;2.15;2.03;;;;;;;15.45;74.10;99789.50;6246955;23;20019;-75
2021/09/09 09:31:07;;;;;;;1.42;1.33;;;;;;;18.31;64.25;99817.03;6149853;23;20060;-72
2021/09/09 09:33:36;;;;;;;1.05;1.05;;;;;;;18.57;63.64;99832.31;6211139;23;20028;-75
2021/09/09 09:36:12;;;;;;;0.98;0.98;;;;;;;18.56;64.12;99820.06;6184291;23;20017;-74
2021/09/09 09:38:38;;;;;;;1.25;1.25;;;;;;;18.32;64.38;99827.50;6160456;23;20052;-75
2021/09/09 09:41:07;;;;;;;1.77;1.67;;;;;;;18.31;64.83;99820.53;6211121;23;20047;-76
2021/09/09 09:43:34;;;;;;;3.35;1.08;;;;;;;18.37;64.43;99822.63;6185480;23;20021;-80
2021/09/09 09:46:00;;;;;;;5.10;1.80;;;;;;;18.68;63.46;99818.16;6212888;23;20036;-77
2021/09/09 09:48:32;;;;;;;2.67;1.92;;;;;;;18.88;62.81;99829.63;6214117;23;20021;-74
2021/09/09 09:50:59;;;;;;;1.38;1.23;;;;;;;18.85;62.54;99822.75;6187465;23;20020;-76
2021/09/09 09:53:25;;;;;;;3.65;0.77;;;;;;;18.62;63.38;99824.81;6186386;23;20084;-72
2021/09/09 09:55:54;;;;;;;1.40;1.30;;;;;;;19.07;61.67;99832.28;6211963;23;20028;-71
2021/09/09 09:58:20;;;;;;;0.93;0.93;;;;;;;18.82;62.57;99828.34;6181186;23;20028;-76
2021/09/09 10:00:46;;;;;;;1.25;1.15;;;;;;;18.79;62.65;99822.47;6210754;23;20021;-77
2021/09/09 10:06:33;;;;;;;1.75;1.65;;;;;;;18.82;62.74;99803.69;6212930;23;20463;-79
2021/09/09 10:09:02;;;;;;;0.93;0.93;;;;;;;18.65;63.84;99829.03;6184556;23;20043;-81
2021/09/09 10:11:28;;;;;;;1.20;1.10;;;;;;;18.54;64.42;99832.59;6161176;23;20024;-77
2021/09/09 10:13:55;;;;;;;1.65;1.27;;;;;;;18.51;64.95;99827.59;6212150;23;20425;-81
2021/09/09 10:16:22;;;;;;;1.73;1.48;;;;;;;18.27;65.52;99834.13;6186076;23;20111;-78
2021/09/09 10:18:48;;;;;;;2.83;1.55;;;;;;;18.30;65.91;99829.41;6160570;23;20017;-78
2021/09/09 10:21:46;;;;;;;2.55;1.33;;;;;;;17.89;67.07;99805.75;6144930;23;20023;-76
2021/09/09 10:24:38;;;;;;;1.33;1.23;;;;;;;17.94;66.42;99832.59;6126763;23;20016;-75
2021/09/09 10:27:23;;;;;;;1.77;1.67;;;;;;;18.11;66.37;99838.13;6161264;23;20040;-78
2021/09/09 10:29:50;;;;;;;1.98;1.88;;;;;;;18.13;66.82;99848.53;6189667;23;20098;-76
2021/09/09 10:32:37;;;;;;;1.45;1.45;;;;;;;18.11;66.75;99847.84;6214658;23;20020;-80
2021/09/09 10:35:19;;;;;;;1.55;1.48;;;;;;;18.10;66.51;99846.16;6241476;22;20020;-78
2021/09/09 10:37:55;;;;;;;9.40;1.92;;;;;;;18.10;66.68;99838.22;6240762;23;20015;-77
2021/09/09 10:40:31;;;;;;;1.50;1.48;;;;;;;18.13;66.80;99830.03;6239363;23;20317;-82
2021/09/09 10:43:26;;;;;;;1.33;1.33;;;;;;;17.97;66.77;99840.25;6239675;23;20367;-81
2021/09/09 10:46:03;;;;;;;1.70;1.60;;;;;;;17.99;66.89;99846.25;6208034;22;20081;-81
2021/09/09 10:48:33;;;;;;;1.58;1.50;;;;;;;17.92;67.25;99851.22;6213540;23;20020;-79
2021/09/09 10:51:21;;;;;;;1.60;1.55;;;;;;;18.06;66.65;99844.78;6242441;23;20020;-78
2021/09/09 10:53:55;;;;;;;1.52;1.48;;;;;;;18.13;66.64;99849.38;6241365;22;20074;-74
2021/09/09 10:56:36;;;;;;;1.33;1.23;;;;;;;18.11;66.08;99837.28;6239388;23;20020;-79
2021/09/09 10:59:46;;;;;;;1.50;1.45;;;;;;;18.17;65.23;99820.88;6134026;22;20018;-83
2021/09/09 11:02:17;;;;;;;1.25;1.25;;;;;;;18.36;65.01;99842.09;6144557;23;20022;-77
2021/09/09 11:08:48;;;;;;;1.42;1.42;;;;;;;18.42;64.69;99838.91;6030459;23;20043;-82
2021/09/09 11:11:45;;;;;;;1.38;1.38;;;;;;;18.44;64.46;99852.00;6130433;23;20021;-84
2021/09/09 11:14:51;;;;;;;1.73;1.63;;;;;;;18.37;64.71;99830.56;6153309;23;20016;-75
2021/09/09 11:17:37;;;;;;;1.30;1.30;;;;;;;18.38;64.78;99834.88;6178718;23;20100;-75
2021/09/09 11:23:42;;;;;;;2.58;2.15;;;;;;;18.63;66.19;99854.75;6178156;23;20021;-78
2021/09/09 11:26:22;;;;;;;2.42;2.33;;;;;;;18.51;65.11;99848.75;6104597;23;20128;-76
2021/09/09 11:29:16;;;;;;;1.30;1.30;;;;;;;18.65;65.81;99845.69;6131235;23;20441;-81
2021/09/09 11:31:54;;;;;;;1.02;0.95;;;;;;;18.36;66.05;99818.31;6105422;23;20020;-76
2021/09/09 11:35:13;;;;;;;1.55;1.45;;;;;;;18.59;65.35;99843.59;6138490;23;20021;-79
2021/09/09 11:37:48;;;;;;;1.27;1.27;;;;;;;18.41;65.00;99837.25;6147237;23;20022;-84
2021/09/09 11:40:17;;;;;;;1.30;1.30;;;;;;;18.57;65.23;99852.66;6240610;23;20023;-79
2021/09/09 11:43:10;;;;;;;1.85;1.73;;;;;;;18.71;64.65;99853.13;6222134;23;20023;-78
2021/09/09 11:45:36;;;;;;;1.50;1.40;;;;;;;18.64;64.81;99848.50;6214271;23;20371;-79
2021/09/09 11:48:03;;;;;;;0.85;0.85;;;;;;;18.55;65.16;99851.94;6239359;23;20104;-75
2021/09/09 11:50:29;;;;;;;4.80;1.50;;;;;;;18.55;64.86;99859.88;6240115;22;20028;-75
2021/09/09 11:53:07;;;;;;;1.30;1.10;;;;;;;18.46;64.83;99869.41;6240667;23;20070;-75
2021/09/09 11:55:37;;;;;;;1.00;1.00;;;;;;;18.37;64.40;99857.00;6240099;22;20019;-75
2021/09/09 11:58:03;;;;;;;1.08;0.80;;;;;;;18.29;65.13;99870.03;6240579;22;20020;-73
2021/09/09 12:00:28;;;;;;;1.05;1.05;;;;;;;18.49;64.39;99865.66;6238464;23;20039;-74
2021/09/09 12:02:54;;;;;;;0.98;0.95;;;;;;;18.27;65.77;99869.34;6166926;22;20032;-83
2021/09/09 12:05:23;;;;;;;0.93;0.93;;;;;;;18.35;65.79;99864.25;6180636;23;20017;-82
2021/09/09 12:07:51;;;;;;;1.48;1.48;;;;;;;18.41;65.90;99863.69;6162352;23;20104;-81
2021/09/09 12:10:20;;;;;;;1.55;1.40;;;;;;;18.37;66.57;99864.94;6168530;23;20048;-86
2021/09/09 12:12:57;;;;;;;2.10;1.92;;;;;;;18.26;67.16;99870.28;6197707;23;20039;-84
2021/09/09 12:15:23;;;;;;;1.20;1.20;;;;;;;18.21;67.64;99856.66;6166036;23;20040;-85
2021/09/09 12:17:49;;;;;;;1.25;1.20;;;;;;;18.26;67.10;99854.44;6138782;23;20457;-82
2021/09/09 12:20:24;;;;;;;1.52;1.42;;;;;;;18.22;66.73;99863.63;6183547;23;20021;-82
2021/09/09 12:22:55;;;;;;;1.55;1.45;;;;;;;18.24;66.43;99861.69;6182946;23;20116;-74
2021/09/09 12:25:28;;;;;;;1.00;0.98;;;;;;;18.29;66.46;99859.44;6178665;23;20043;-74
2021/09/09 12:28:04;;;;;;;0.80;0.80;;;;;;;18.41;65.46;99862.84;6180393;23;20063;-75
2021/09/09 12:30:55;;;;;;;0.70;0.70;;;;;;;18.48;64.98;99858.72;6179937;23;20025;-74
2021/09/09 12:33:28;;;;;;;1.05;1.05;;;;;;;18.51;64.77;99869.91;6177882;23;20080;-74
2021/09/09 12:36:12;;;;;;;1.00;1.00;;;;;;;18.45;64.61;99867.75;6180450;23;20013;-73
2021/09/09 12:38:51;;;;;;;0.70;0.70;;;;;;;18.37;65.11;99869.38;6178953;23;20017;-75
2021/09/09 12:41:17;;;;;;;0.95;0.93;;;;;;;18.37;65.05;99862.28;6179030;23;20017;-74
2021/09/09 12:43:45;;;;;;;1.15;1.15;;;;;;;18.38;64.56;99856.03;6176500;23;20096;-76
2021/09/09 12:46:30;;;;;;;1.92;1.83;;;;;;;18.43;64.13;99867.03;6177135;23;20519;-76
2021/09/09 12:49:23;;;;;;;1.20;1.20;;;;;;;18.49;64.62;99868.28;6177788;23;20017;-76
2021/09/09 12:51:49;;;;;;;1.05;0.98;;;;;;;18.51;64.76;99869.06;6168144;23;20045;-77
2021/09/09 12:54:17;;;;;;;1.05;1.05;;;;;;;18.51;64.85;99864.59;6153802;23;20092;-77
2021/09/09 12:56:45;;;;;;;1.52;1.42;;;;;;;18.54;64.67;99852.91;6182834;23;20021;-75
2021/09/09 12:59:11;;;;;;;0.85;0.85;;;;;;;18.54;65.37;99874.06;6189481;23;20025;-76
2021/09/09 13:01:36;;;;;;;1.17;1.17;;;;;;;18.34;65.44;99867.84;6161545;23;20024;-77
2021/09/09 13:04:29;;;;;;;1.23;1.23;;;;;;;18.28;65.62;99863.09;6179171;23;20081;-76
2021/09/09 13:06:56;;;;;;;4.20;1.98;;;;;;;18.33;65.64;99862.66;6180462;23;20052;-75
2021/09/09 13:09:22;;;;;;;3.40;1.60;;;;;;;18.29;65.59;99864.75;6179777;23;20017;-76
2021/09/09 13:11:48;;;;;;;1.40;1.40;;;;;;;18.40;65.54;99864.66;6180270;23;20017;-74
2021/09/09 13:14:14;;;;;;;4.80;1.42;;;;;;;18.32;65.52;99868.94;6179846;23;20341;-74
2021/09/09 13:16:41;;;;;;;1.50;1.42;;;;;;;18.27;65.56;99861.41;6178938;23;20020;-77
2021/09/09 13:19:08;;;;;;;1.25;1.25;;;;;;;18.25;65.83;99868.66;6181605;23;20025;-78
2021/09/09 13:21:37;;;;;;;1.42;1.42;;;;;;;18.29;66.13;99875.31;6180062;23;20013;-77
2021/09/09 13:24:04;;;;;;;1.60;1.50;;;;;;;18.31;66.53;99872.56;6181814;23;20021;-75
2021/09/09 13:26:30;;;;;;;3.38;2.05;;;;;;;18.35;65.67;99873.97;6181969;23;20095;-75
2021/09/09 13:28:57;;;;;;;1.58;1.48;;;;;;;18.31;65.61;99864.63;6179536;23;20123;-75
2021/09/09 13:31:23;;;;;;;3.50;1.48;;;;;;;18.33;65.58;99870.59;6179443;23;20423;-75
2021/09/09 13:33:50;;;;;;;1.67;1.58;;;;;;;18.40;65.63;99872.59;6181631;23;20619;-75
2021/09/09 13:36:16;;;;;;;2.28;2.08;;;;;;;18.41;65.75;99871.63;6181520;23;20096;-76
2021/09/09 13:38:43;;;;;;;8.48;1.98;;;;;;;18.45;65.65;99874.84;6180052;23;20021;-77
2021/09/09 13:41:09;;;;;;;1.67;1.55;;;;;;;18.54;64.98;99877.56;6181556;23;20478;-75
2021/09/09 13:43:35;;;;;;;5.93;1.65;;;;;;;18.60;65.12;99877.00;6181353;23;20408;-76
2021/09/09 13:46:01;;;;;;;1.30;1.30;;;;;;;18.59;65.18;99880.63;6181278;23;20069;-76
2021/09/09 13:48:27;;;;;;;1.52;1.42;;;;;;;18.55;65.17;99876.56;6181772;23;20021;-75
2021/09/09 13:50:53;;;;;;;1.60;1.35;;;;;;;18.53;65.55;99886.44;6181758;23;20407;-76
2021/09/09 13:53:19;;;;;;;2.85;1.63;;;;;;;18.60;65.37;99878.81;6180944;23;20021;-76
2021/09/09 13:55:46;;;;;;;1.40;1.30;;;;;;;18.57;64.92;99863.22;6178911;23;20384;-76
2021/09/09 13:58:12;;;;;;;1.25;1.25;;;;;;;18.53;65.19;99883.81;6180076;23;20021;-77
2021/09/09 14:00:38;;;;;;;2.72;1.83;;;;;;;18.61;65.37;99880.50;6181958;23;20075;-77
2021/09/09 14:03:04;;;;;;;1.35;1.25;;;;;;;18.49;65.58;99866.50;6181092;23;20017;-75
2021/09/09 14:05:31;;;;;;;2.15;1.65;;;;;;;18.51;65.25;99875.19;6181539;23;20071;-77
2021/09/09 14:07:57;;;;;;;7.50;1.58;;;;;;;18.52;65.64;99876.03;6179972;23;20064;-75
2021/09/09 14:10:23;;;;;;;2.28;1.92;;;;;;;18.43;65.48;99869.69;6179867;23;20021;-76
2021/09/09 14:12:49;;;;;;;2.03;1.88;;;;;;;18.42;65.39;99881.22;6180004;23;20017;-76
2021/09/09 14:15:16;;;;;;;12.50;1.10;;;;;;;18.43;65.48;99880.25;6181077;23;20088;-76
2021/09/09 14:17:42;;;;;;;0.68;0.68;;;;;;;18.47;65.27;99867.59;6178270;23;20079;-77
2021/09/09 14:20:08;;;;;;;1.77;1.67;;;;;;;18.58;64.70;99880.78;6173923;23;20725;-75
2021/09/09 14:22:35;;;;;;;1.60;1.50;;;;;;;18.66;63.79;99888.84;6180560;23;20021;-76
2021/09/09 14:25:02;;;;;;;0.93;0.93;;;;;;;18.61;64.33;99885.78;6179239;23;20120;-75
2021/09/09 14:27:28;;;;;;;1.67;1.42;;;;;;;18.62;65.21;99885.63;6179892;23;20046;-77
2021/09/09 14:29:54;;;;;;;2.03;1.92;;;;;;;18.55;64.92;99887.13;6178702;23;20364;-77
2021/09/09 14:32:20;;;;;;;1.20;1.15;;;;;;;18.44;65.49;99874.00;6155105;23;20024;-76
2021/09/09 14:34:46;;;;;;;1.83;1.73;;;;;;;18.39;65.33;99878.03;6154941;23;20099;-76
2021/09/09 14:37:12;;;;;;;2.75;1.65;;;;;;;18.35;66.02;99879.25;6180802;23;20017;-75
2021/09/09 14:39:40;;;;;;;1.38;1.38;;;;;;;18.28;66.02;99889.53;6180956;23;20071;-77
2021/09/09 14:42:07;;;;;;;1.35;1.25;;;;;;;18.25;66.06;99883.66;6179600;23;20017;-77
2021/09/09 14:44:44;;;;;;;2.72;1.30;;;;;;;18.22;66.32;99880.28;6179609;23;20028;-79
2021/09/09 14:47:10;;;;;;;1.50;1.50;;;;;;;18.17;66.70;99879.03;6178738;23;20020;-78
2021/09/09 14:49:36;;;;;;;2.50;2.35;;;;;;;18.15;66.43;99886.25;6180850;23;20322;-77